Weather at Lanywa Airport

Public forecast

Using degrees Celsius for public forecast. Weather courtesy of forecast.io.

Closest aviation weather report (METAR) to Lanywa Airport

Closest report is Mandalay International Airport, 79.2 nm (146.6 km) NE. Retrieved 2020/10/23 10:30 UTC (0 seconds ago):

VYMD 231030Z 14005KT 7000 BKN020 FEW025CB BKN100 29/25 Q1006

Closest aviation forecast (TAF) to Lanywa Airport

Forecast is more than 6 hours old.

Closest forecast is Mandalay International Airport, 79.2 nm (146.6 km) NE. Retrieved 2020-10-23 00:00 UTC (10 hours ago):

TAF VYMD 222300Z 2300/2324 29005KT 6000 BKN018 FEW020CB BKN100 TEMPO 2300/2306 33009KT 4000 -TSRA BKN015 FEW020CB OVC080